Topsham, ME

11:57 PM EDT on July 04, 2015 (GMT -0400)
Brunswick Police Department | | Change Station
CLOSE
Current Station
Personal Weather Station
Location: Brunswick, ME
Elevation: 89 ft
Nearby Weather Stations

Elev 89 ft 43.91 °N, 69.98 °W | Updated 26 minutes ago

Partly Cloudy
Partly Cloudy
59.0 °F
Feels Like 59.0 °F
N
0.0
Wind Variable Wind from NE
Gusts 0.0 mph

Today
High -- | Low -- °F
--% Chance of Precip.
Yesterday
High -- | Low -- °F
Precip. -- in
5:02 AM 8:25 PM
Waning Gibbous, 88% visible
Pressure 29.97 in
Visibility 4.0 miles
Clouds Clear
Dew Point 57 °F
Humidity 94%
Rainfall 0.00 in
Snow Depth Not available.
UV 0 out of 12
Pollen 3.50 out of 12
Air Quality Not available.
Flu Activity Not available.
METAR KIWI 050353Z AUTO 00000KT 4SM BR CLR 13/12 A2997 RMK AO2 SLP149 T01280117

More Conditions Fewer Conditions

Pressure 29.97 in
Visibility 4.0 miles
Clouds Clear
Dew Point 57 °F
Humidity 94%
Rainfall 0.00 in
Snow Depth Not available.
UV 0 out of 12
Pollen 3.50 out of 12
Air Quality Not available.
Flu Activity Not available.
METAR KIWI 050353Z AUTO 00000KT 4SM BR CLR 13/12 A2997 RMK AO2 SLP149 T01280117

More Conditions Fewer Conditions

10-Day Weather Forecast

×

Almanac

Astronomy

Jul. 04, 2015 Rise Set
Actual Time
Civil Twilight
Nautical Twilight
Astronomical Twilight
Moon
Length of Visible Light
Length of Day
Tomorrow will be .
, % of the Moon is Illuminated

Today's Extremes

State Highs State Lows

Community

WunderPhotos

Upload Photos

1,835,193 photos uploaded!

WunderBlogs® & News

Nearby

Air Quality

  Air Quality AQ Index Pollutant
Not available.

Snow Depth

Station Depth Elevation

Earthquake Activity

City Distance Mag. Time & Date
Minimum magnitude displayed is 2.5.

Coastal Water Temperatures

Place Temperature

Stations

Nearby Weather Stations

Station Location Temp. Windchill Dew Point Humidity Wind Precip. Elev Updated Type